East Dean, United Kingdom
Current Conditions -  °F | °C
As of 3:50 AM on Wednesday 28 Jan 2015 (Local Time) from EGVP Reporting Station
Broken Clouds Broken Clouds  
Wind Chill: 38°   Ceiling: 800
Heat Index: 45°   Visibility: 6mi
Dew Point: 43°   Wind: 13mph
Humidity: 93%   Direction: 220°SW
Pressure: 29.91"   Gusts: NA
Location:  51.04°N, 1.61°W
Report Text: EGVP 280350Z AUTO 22011KT 9000 // BKN008/// 07/06 Q1013
Loading
Personal Weather Stations






























Interactive Weather Map New forecast layout! Learn more

10-Day Weather Forecast

Advertisements
Track Severe Weather on mobile